createdAt,value
2017-07-02T00:00:31.133Z,11.00
2017-07-02T00:02:58.546Z,10.47
2017-07-02T00:05:25.942Z,10.80
2017-07-02T00:07:53.355Z,11.00
2017-07-02T00:10:20.748Z,11.70
2017-07-02T00:12:48.169Z,10.43
2017-07-02T00:15:15.567Z,9.53
2017-07-02T00:17:42.972Z,11.33
2017-07-02T00:20:10.375Z,11.60
2017-07-02T00:22:37.771Z,9.30
2017-07-02T00:25:05.176Z,10.03
2017-07-02T00:27:32.596Z,10.77
2017-07-02T00:29:59.995Z,10.23
2017-07-02T00:32:27.403Z,10.83
2017-07-02T00:34:54.803Z,11.40
2017-07-02T00:37:22.207Z,10.83
2017-07-02T00:39:49.617Z,10.20
2017-07-02T00:42:17.022Z,9.60
2017-07-02T00:44:44.431Z,10.07
2017-07-02T00:47:11.827Z,9.63
2017-07-02T00:49:39.240Z,9.50
2017-07-02T00:52:06.637Z,9.07
2017-07-02T00:54:34.082Z,10.40
2017-07-02T00:57:01.438Z,10.10
2017-07-02T00:59:28.847Z,9.00
2017-07-02T01:01:56.486Z,10.20
2017-07-02T01:04:23.890Z,8.87
2017-07-02T01:06:51.294Z,9.17
2017-07-02T01:09:18.695Z,8.80
2017-07-02T01:11:46.091Z,8.53
2017-07-02T01:14:13.495Z,9.30
2017-07-02T01:16:40.904Z,8.57
2017-07-02T01:19:08.299Z,6.80
2017-07-02T01:21:35.699Z,7.90
2017-07-02T01:24:03.103Z,6.47
2017-07-02T01:26:30.507Z,6.77
2017-07-02T01:28:57.907Z,7.20
2017-07-02T01:31:25.300Z,7.13
2017-07-02T01:33:52.707Z,6.63
2017-07-02T01:36:20.109Z,7.07
2017-07-02T01:38:47.520Z,6.83
2017-07-02T01:41:14.944Z,6.43
2017-07-02T01:43:42.338Z,7.07
2017-07-02T01:46:09.743Z,6.20
2017-07-02T01:48:37.375Z,5.90
2017-07-02T01:51:04.769Z,6.73
2017-07-02T01:53:32.167Z,7.10
2017-07-02T01:55:59.586Z,7.73
2017-07-02T01:58:26.979Z,7.23
2017-07-02T02:01:06.209Z,6.63
2017-07-02T02:03:33.607Z,7.50
2017-07-02T02:06:01.014Z,7.40
2017-07-02T02:08:28.403Z,8.97
2017-07-02T02:10:55.804Z,7.40
2017-07-02T02:13:23.204Z,8.13
2017-07-02T02:15:50.598Z,9.50
2017-07-02T02:18:17.990Z,7.10
2017-07-02T02:20:45.394Z,8.73
2017-07-02T02:23:12.790Z,9.43
2017-07-02T02:25:40.187Z,9.30
2017-07-02T02:28:07.638Z,11.50
2017-07-02T02:30:35.056Z,12.33
2017-07-02T02:33:02.455Z,12.83
2017-07-02T02:35:29.872Z,11.40
2017-07-02T02:37:57.278Z,12.07
2017-07-02T02:40:24.687Z,11.80
2017-07-02T02:42:52.097Z,12.00
2017-07-02T02:45:19.498Z,12.00
2017-07-02T02:47:46.911Z,10.80
2017-07-02T02:50:14.309Z,9.00
2017-07-02T02:52:41.705Z,9.80
2017-07-02T02:55:09.109Z,9.03
2017-07-02T02:57:36.499Z,9.03
2017-07-02T03:00:03.902Z,9.93
2017-07-02T03:02:31.298Z,9.30
2017-07-02T03:04:58.717Z,7.50
2017-07-02T03:07:26.115Z,7.07
2017-07-02T03:09:53.506Z,9.30
2017-07-02T03:12:20.911Z,9.33
2017-07-02T03:14:48.346Z,8.27
2017-07-02T03:17:15.765Z,7.13
2017-07-02T03:19:43.156Z,9.93
2017-07-02T03:22:10.562Z,8.00
2017-07-02T03:24:37.956Z,9.00
2017-07-02T03:27:05.355Z,8.77
2017-07-02T03:29:32.746Z,7.60
2017-07-02T03:32:00.150Z,8.20
2017-07-02T03:34:27.551Z,9.57
2017-07-02T03:36:54.956Z,9.37
2017-07-02T03:39:22.368Z,7.50
2017-07-02T03:41:49.766Z,9.33
2017-07-02T03:44:17.162Z,9.23
2017-07-02T03:46:44.564Z,7.83
2017-07-02T03:49:11.970Z,7.80
2017-07-02T03:51:39.380Z,10.10
2017-07-02T03:54:06.792Z,8.30
2017-07-02T03:56:34.195Z,10.30
2017-07-02T03:59:01.595Z,10.60
2017-07-02T04:01:29.006Z,13.20
2017-07-02T04:03:56.402Z,12.10
2017-07-02T04:06:24.066Z,14.90
2017-07-02T04:08:51.463Z,15.30
2017-07-02T04:11:18.871Z,14.60
2017-07-02T04:13:46.268Z,14.70
2017-07-02T04:16:13.679Z,12.00
2017-07-02T04:18:41.079Z,15.13
2017-07-02T04:21:08.471Z,15.90
2017-07-02T04:23:35.877Z,14.73
2017-07-02T04:26:03.271Z,16.53
2017-07-02T04:28:30.674Z,18.53
2017-07-02T04:30:58.083Z,17.13
2017-07-02T04:33:25.491Z,17.40
2017-07-02T04:35:52.883Z,16.93
2017-07-02T04:38:20.291Z,18.80
2017-07-02T04:40:47.846Z,19.03
2017-07-02T04:43:15.247Z,18.70
2017-07-02T04:45:42.652Z,15.67
2017-07-02T04:48:10.062Z,18.30
2017-07-02T04:50:37.457Z,16.60
2017-07-02T04:53:04.859Z,18.57
2017-07-02T04:55:32.263Z,18.70
2017-07-02T04:57:59.667Z,16.30
2017-07-02T05:00:27.127Z,18.33
2017-07-02T05:02:54.519Z,12.20
2017-07-02T05:05:21.923Z,13.10
2017-07-02T05:07:49.331Z,12.43
2017-07-02T05:10:16.736Z,11.00
2017-07-02T05:12:44.143Z,11.57
2017-07-02T05:15:11.542Z,10.10
2017-07-02T05:17:38.959Z,11.13
2017-07-02T05:20:06.352Z,9.53
2017-07-02T05:22:33.760Z,9.53
2017-07-02T05:25:01.162Z,11.30
2017-07-02T05:27:28.567Z,9.30
2017-07-02T05:29:55.971Z,9.83
2017-07-02T05:32:23.360Z,8.93
2017-07-02T05:34:50.759Z,7.90
2017-07-02T05:37:18.163Z,9.30
2017-07-02T05:39:45.562Z,7.80
2017-07-02T05:42:12.955Z,7.90
2017-07-02T05:44:40.354Z,8.13
2017-07-02T05:47:07.771Z,6.60
2017-07-02T05:49:35.207Z,7.10
2017-07-02T05:52:02.594Z,7.33
2017-07-02T05:54:29.998Z,7.40
2017-07-02T05:56:57.386Z,7.47
2017-07-02T05:59:24.787Z,8.00
2017-07-02T06:01:52.188Z,8.10
2017-07-02T06:04:19.595Z,8.07
2017-07-02T06:06:46.992Z,8.23
2017-07-02T06:09:14.395Z,6.60
2017-07-02T06:11:41.788Z,6.30
2017-07-02T06:14:09.188Z,6.73
2017-07-02T06:16:36.633Z,6.90
2017-07-02T06:19:04.034Z,6.67
2017-07-02T06:21:31.434Z,6.87
2017-07-02T06:23:58.846Z,7.00
2017-07-02T06:26:26.233Z,6.80
2017-07-02T06:28:53.635Z,6.97
2017-07-02T06:31:21.040Z,6.93
2017-07-02T06:33:48.431Z,7.57
2017-07-02T06:36:15.834Z,8.70
2017-07-02T06:38:44.099Z,8.20
2017-07-02T06:41:11.612Z,8.43
2017-07-02T06:43:39.021Z,8.43
2017-07-02T06:46:06.420Z,7.40
2017-07-02T06:48:34.059Z,8.17
2017-07-02T06:51:01.480Z,8.13
2017-07-02T06:53:28.965Z,8.97
2017-07-02T06:55:56.406Z,8.10
2017-07-02T06:58:23.805Z,8.53
2017-07-02T07:00:51.207Z,8.07
2017-07-02T07:03:18.598Z,8.27
2017-07-02T07:05:45.999Z,8.33
2017-07-02T07:08:13.394Z,8.80
2017-07-02T07:10:40.798Z,9.13
2017-07-02T07:13:08.199Z,9.80
2017-07-02T07:15:35.639Z,11.00
2017-07-02T07:18:03.027Z,8.57
2017-07-02T07:20:30.434Z,9.27
2017-07-02T07:22:57.826Z,10.13
2017-07-02T07:25:25.318Z,10.10
2017-07-02T07:27:52.684Z,9.50
2017-07-02T07:30:20.117Z,10.07
2017-07-02T07:32:47.522Z,8.90
2017-07-02T07:35:14.931Z,9.63
2017-07-02T07:37:42.370Z,9.80
2017-07-02T07:40:09.782Z,10.37
2017-07-02T07:42:37.216Z,9.23
2017-07-02T07:45:04.619Z,9.20
2017-07-02T07:47:32.011Z,9.37
2017-07-02T07:49:59.412Z,9.73
2017-07-02T07:52:26.852Z,9.53
2017-07-02T07:54:54.251Z,9.67
2017-07-02T07:57:21.704Z,9.53
2017-07-02T07:59:49.140Z,10.13
2017-07-02T08:02:16.777Z,10.10
2017-07-02T08:04:44.164Z,9.47
2017-07-02T08:07:11.571Z,8.80
2017-07-02T08:09:41.141Z,9.33
2017-07-02T08:12:09.376Z,8.87
2017-07-02T08:14:37.159Z,7.90
2017-07-02T08:17:04.558Z,8.80
2017-07-02T08:19:31.974Z,7.20
2017-07-02T08:21:59.365Z,7.03
2017-07-02T08:24:26.799Z,7.10
2017-07-02T08:26:54.223Z,7.00
2017-07-02T08:29:21.619Z,6.17
2017-07-02T08:31:49.039Z,7.37
2017-07-02T08:34:16.458Z,6.67
2017-07-02T08:36:43.911Z,5.33
2017-07-02T08:39:11.303Z,5.37
2017-07-02T08:41:38.706Z,6.83
2017-07-02T08:44:06.121Z,6.60
2017-07-02T08:46:33.511Z,6.23
2017-07-02T08:49:00.907Z,6.00
2017-07-02T08:51:28.341Z,5.73
2017-07-02T08:53:55.770Z,6.83
2017-07-02T08:56:23.175Z,6.70
2017-07-02T08:58:51.833Z,7.73
2017-07-02T09:01:19.234Z,6.73
2017-07-02T09:03:46.624Z,7.33
2017-07-02T09:06:14.035Z,6.87
2017-07-02T09:08:41.431Z,8.00
2017-07-02T09:11:08.856Z,7.37
2017-07-02T09:13:36.254Z,7.00
2017-07-02T09:16:03.662Z,7.60
2017-07-02T09:18:31.078Z,7.80
2017-07-02T09:20:58.475Z,7.87
2017-07-02T09:23:25.887Z,6.80
2017-07-02T09:25:53.291Z,10.13
2017-07-02T09:28:20.707Z,7.77
2017-07-02T09:30:48.107Z,8.67
2017-07-02T09:33:15.518Z,7.93
2017-07-02T09:35:42.911Z,9.07
2017-07-02T09:38:10.328Z,8.00
2017-07-02T09:40:37.971Z,9.23
2017-07-02T09:43:05.395Z,8.53
2017-07-02T09:45:32.799Z,9.40
2017-07-02T09:48:00.198Z,9.33
2017-07-02T09:50:27.868Z,9.43
2017-07-02T09:52:55.272Z,11.60
2017-07-02T09:55:22.667Z,9.87
2017-07-02T09:57:50.067Z,8.90
2017-07-02T10:00:17.468Z,10.70
2017-07-02T10:02:44.875Z,8.40
2017-07-02T10:05:12.290Z,11.10
2017-07-02T10:07:39.718Z,11.70
2017-07-02T10:10:07.112Z,10.17
2017-07-02T10:12:34.510Z,13.13
2017-07-02T10:15:01.907Z,12.10
2017-07-02T10:17:29.334Z,11.70
2017-07-02T10:19:56.736Z,11.80
2017-07-02T10:22:24.138Z,10.70
2017-07-02T10:24:51.551Z,11.10
2017-07-02T10:27:18.971Z,10.97
2017-07-02T10:29:46.374Z,14.87
2017-07-02T10:32:13.780Z,12.73
2017-07-02T10:34:41.195Z,12.00
2017-07-02T10:37:08.687Z,14.33
2017-07-02T10:39:36.078Z,13.30
2017-07-02T10:42:03.475Z,13.10
2017-07-02T10:44:30.878Z,16.27
2017-07-02T10:46:58.283Z,13.30
2017-07-02T10:49:25.692Z,13.30
2017-07-02T10:51:53.095Z,11.37
2017-07-02T10:54:20.500Z,13.00
2017-07-02T10:56:47.898Z,15.03
2017-07-02T10:59:15.303Z,14.97
2017-07-02T11:01:42.707Z,15.43
2017-07-02T11:04:10.366Z,17.50
2017-07-02T11:06:37.766Z,19.57
2017-07-02T11:09:05.171Z,20.37
2017-07-02T11:11:32.619Z,14.67
2017-07-02T11:14:00.016Z,9.80
2017-07-02T11:16:27.427Z,7.10
2017-07-02T11:18:54.820Z,6.50
2017-07-02T11:21:22.202Z,7.20
2017-07-02T11:23:49.603Z,6.07
2017-07-02T11:26:16.998Z,6.63
2017-07-02T11:28:44.395Z,6.23
2017-07-02T11:31:11.834Z,7.20
2017-07-02T11:33:39.219Z,8.03
2017-07-02T11:36:06.613Z,8.20
2017-07-02T11:38:34.020Z,9.30
2017-07-02T11:41:01.412Z,8.30
2017-07-02T11:43:28.795Z,8.27
2017-07-02T11:45:56.203Z,9.20
2017-07-02T11:48:23.596Z,9.27
2017-07-02T11:50:51.002Z,8.70
2017-07-02T11:53:18.395Z,9.70
2017-07-02T11:55:45.798Z,8.70
2017-07-02T11:58:13.218Z,9.10
2017-07-02T12:00:40.596Z,8.03
2017-07-02T12:03:07.997Z,9.43
2017-07-02T12:05:35.401Z,8.10
2017-07-02T12:08:02.791Z,7.93
2017-07-02T12:10:30.195Z,8.80
2017-07-02T12:12:57.594Z,9.03
2017-07-02T12:15:25.003Z,8.83
2017-07-02T12:17:52.399Z,8.57
2017-07-02T12:20:19.797Z,9.00
2017-07-02T12:22:48.176Z,8.47
2017-07-02T12:25:15.579Z,8.47
2017-07-02T12:27:43.287Z,7.70
2017-07-02T12:30:10.681Z,7.50
2017-07-02T12:32:38.083Z,7.93
2017-07-02T12:35:05.483Z,7.80
2017-07-02T12:37:32.870Z,7.93
2017-07-02T12:40:00.275Z,6.17
2017-07-02T12:42:27.695Z,6.70
2017-07-02T12:44:55.095Z,6.00
2017-07-02T12:47:22.483Z,6.13
2017-07-02T12:49:49.885Z,4.93
2017-07-02T12:52:17.275Z,6.40
2017-07-02T12:54:44.694Z,5.33
2017-07-02T12:57:12.089Z,4.60
2017-07-02T12:59:39.483Z,6.83
2017-07-02T13:02:07.095Z,5.93
2017-07-02T13:04:34.494Z,6.90
2017-07-02T13:07:01.890Z,5.43
2017-07-02T13:09:29.287Z,5.60
2017-07-02T13:11:56.683Z,5.40
2017-07-02T13:14:24.068Z,4.97
2017-07-02T13:16:51.458Z,4.70
2017-07-02T13:19:18.857Z,4.33
2017-07-02T13:21:46.253Z,3.83
2017-07-02T13:24:13.655Z,3.23
2017-07-02T13:26:41.067Z,3.50
2017-07-02T13:29:08.460Z,3.73
2017-07-02T13:31:35.851Z,3.67
2017-07-02T13:34:03.248Z,4.50
2017-07-02T13:36:30.943Z,3.70
2017-07-02T13:38:58.324Z,3.20
2017-07-02T13:41:25.954Z,3.27
2017-07-02T13:43:54.099Z,2.77
2017-07-02T13:46:21.507Z,2.00
2017-07-02T13:48:48.902Z,2.50
2017-07-02T13:51:16.305Z,2.30
2017-07-02T13:53:43.699Z,2.40
2017-07-02T13:56:11.103Z,2.60
2017-07-02T13:58:38.504Z,2.43
2017-07-02T14:01:05.905Z,2.03
2017-07-02T14:03:33.291Z,3.10
2017-07-02T14:06:00.688Z,2.00
2017-07-02T14:08:28.071Z,2.50
2017-07-02T14:10:55.478Z,2.70
2017-07-02T14:13:22.877Z,2.50
2017-07-02T14:15:50.268Z,2.57
2017-07-02T14:18:17.670Z,2.17
2017-07-02T14:20:45.215Z,1.67
2017-07-02T14:23:12.615Z,1.97
2017-07-02T14:25:40.011Z,1.90
2017-07-02T14:28:07.447Z,1.73
2017-07-02T14:30:34.835Z,1.60
2017-07-02T14:33:02.234Z,2.43
2017-07-02T14:35:29.624Z,1.60
2017-07-02T14:37:57.040Z,1.57
2017-07-02T14:40:24.431Z,1.50
2017-07-02T14:42:51.835Z,1.47
2017-07-02T14:45:19.223Z,1.50
2017-07-02T14:47:46.619Z,1.80
2017-07-02T14:50:14.010Z,1.47
2017-07-02T14:52:41.407Z,1.57
2017-07-02T14:55:08.817Z,1.37
2017-07-02T14:57:36.199Z,1.60
2017-07-02T15:00:03.595Z,1.60
2017-07-02T15:02:30.998Z,1.40
2017-07-02T15:04:58.386Z,1.37
2017-07-02T15:07:25.785Z,1.70
2017-07-02T15:09:53.171Z,1.07
2017-07-02T15:12:20.574Z,2.23
2017-07-02T15:14:48.009Z,1.70
2017-07-02T15:17:15.415Z,1.20
2017-07-02T15:19:42.811Z,1.97
2017-07-02T15:22:10.200Z,1.77
2017-07-02T15:24:37.627Z,1.70
2017-07-02T15:27:05.020Z,1.70
2017-07-02T15:29:32.411Z,1.60
2017-07-02T15:31:59.813Z,1.83
2017-07-02T15:34:27.208Z,1.53
2017-07-02T15:36:54.614Z,2.10
2017-07-02T15:39:22.011Z,2.00
2017-07-02T15:41:49.616Z,2.23
2017-07-02T15:44:17.015Z,1.73
2017-07-02T15:46:44.404Z,2.10
2017-07-02T15:49:11.815Z,2.60
2017-07-02T15:51:39.213Z,2.80
2017-07-02T15:54:06.619Z,3.00
2017-07-02T15:56:34.010Z,2.40
2017-07-02T15:59:01.410Z,2.40
2017-07-02T16:01:28.803Z,2.70
2017-07-02T16:03:56.207Z,2.80
2017-07-02T16:06:23.602Z,2.30
2017-07-02T16:08:51.019Z,2.67
2017-07-02T16:11:18.412Z,2.50
2017-07-02T16:13:45.808Z,2.43
2017-07-02T16:16:13.204Z,2.80
2017-07-02T16:18:40.596Z,2.70
2017-07-02T16:21:08.035Z,2.13
2017-07-02T16:23:35.438Z,2.30
2017-07-02T16:26:02.851Z,2.07
2017-07-02T16:28:30.251Z,2.17
2017-07-02T16:30:57.635Z,2.60
2017-07-02T16:33:25.023Z,2.00
2017-07-02T16:35:52.419Z,1.77
2017-07-02T16:38:19.819Z,2.33
2017-07-02T16:40:47.220Z,2.03
2017-07-02T16:43:14.614Z,2.00
2017-07-02T16:45:42.007Z,2.30
2017-07-02T16:48:09.403Z,2.13
2017-07-02T16:50:36.803Z,1.70
2017-07-02T16:53:04.211Z,1.63
2017-07-02T16:55:31.610Z,1.40
2017-07-02T16:57:59.002Z,1.20
2017-07-02T17:00:26.412Z,1.40
2017-07-02T17:02:53.800Z,1.77
2017-07-02T17:05:21.208Z,1.67
2017-07-02T17:07:48.604Z,1.67
2017-07-02T17:10:16.007Z,1.63
2017-07-02T17:12:43.399Z,1.70
2017-07-02T17:15:10.806Z,2.13
2017-07-02T17:17:38.195Z,1.67
2017-07-02T17:20:05.604Z,1.33
2017-07-02T17:22:32.993Z,1.97
2017-07-02T17:25:00.386Z,1.40
2017-07-02T17:27:27.785Z,1.87
2017-07-02T17:29:55.188Z,1.67
2017-07-02T17:32:22.890Z,1.60
2017-07-02T17:34:50.499Z,1.50
2017-07-02T17:37:18.116Z,1.43
2017-07-02T17:39:45.506Z,1.33
2017-07-02T17:42:12.906Z,1.33
2017-07-02T17:44:40.579Z,1.77
2017-07-02T17:47:08.002Z,2.27
2017-07-02T17:49:35.403Z,1.20
2017-07-02T17:52:02.803Z,1.67
2017-07-02T17:54:34.187Z,1.57
2017-07-02T17:57:01.643Z,1.47
2017-07-02T17:59:29.039Z,1.70
2017-07-02T18:01:56.450Z,1.30
2017-07-02T18:04:23.852Z,1.13
2017-07-02T18:06:51.244Z,1.37
2017-07-02T18:09:18.824Z,1.13
2017-07-02T18:11:46.695Z,1.70
2017-07-02T18:14:14.094Z,1.37
2017-07-02T18:16:41.871Z,1.33
2017-07-02T18:19:10.508Z,1.57
2017-07-02T18:21:50.079Z,1.67
2017-07-02T18:24:17.694Z,1.63
2017-07-02T18:26:45.090Z,1.40
2017-07-02T18:29:12.474Z,1.90
2017-07-02T18:31:39.887Z,1.53
2017-07-02T18:34:07.263Z,1.67
2017-07-02T18:36:34.659Z,1.60
2017-07-02T18:39:02.057Z,2.00
2017-07-02T18:41:29.502Z,1.60
2017-07-02T18:43:56.887Z,2.20
2017-07-02T18:46:24.286Z,1.50
2017-07-02T18:48:51.674Z,1.50
2017-07-02T18:51:19.071Z,1.40
2017-07-02T18:53:46.455Z,1.70
2017-07-02T18:56:13.847Z,1.50
2017-07-02T18:58:41.235Z,1.40
2017-07-02T19:01:08.639Z,1.50
2017-07-02T19:03:36.031Z,1.53
2017-07-02T19:06:03.460Z,1.43
2017-07-02T19:08:30.855Z,1.40
2017-07-02T19:10:58.276Z,1.97
2017-07-02T19:13:25.663Z,1.77
2017-07-02T19:15:53.074Z,1.90
2017-07-02T19:18:20.470Z,1.30
2017-07-02T19:20:47.870Z,1.23
2017-07-02T19:23:15.270Z,1.60
2017-07-02T19:25:42.663Z,2.03
2017-07-02T19:28:10.072Z,1.90
2017-07-02T19:30:37.471Z,1.67
2017-07-02T19:33:04.871Z,1.47
2017-07-02T19:35:32.283Z,1.53
2017-07-02T19:37:59.679Z,1.90
2017-07-02T19:40:27.117Z,1.70
2017-07-02T19:42:54.499Z,1.53
2017-07-02T19:45:21.891Z,1.57
2017-07-02T19:47:49.291Z,1.60
2017-07-02T19:50:16.683Z,1.70
2017-07-02T19:52:44.087Z,2.20
2017-07-02T19:55:11.475Z,2.03
2017-07-02T19:57:38.888Z,1.83
2017-07-02T20:00:06.277Z,2.00
2017-07-02T20:02:33.683Z,1.37
2017-07-02T20:05:01.101Z,2.27
2017-07-02T20:07:28.529Z,1.77
2017-07-02T20:09:55.923Z,2.20
2017-07-02T20:12:23.338Z,1.93
2017-07-02T20:14:50.734Z,1.90
2017-07-02T20:17:18.154Z,1.67
2017-07-02T20:19:45.556Z,2.20
2017-07-02T20:22:12.953Z,2.60
2017-07-02T20:24:40.351Z,2.90
2017-07-02T20:27:07.752Z,1.93
2017-07-02T20:29:35.148Z,2.73
2017-07-02T20:32:02.546Z,3.10
2017-07-02T20:34:29.938Z,2.67
2017-07-02T20:39:31.215Z,2.07
2017-07-02T20:41:58.619Z,2.50
2017-07-02T20:44:26.016Z,2.30
2017-07-02T20:46:53.416Z,2.50
2017-07-02T20:49:20.811Z,2.17
2017-07-02T20:51:48.203Z,2.50
2017-07-02T20:54:15.607Z,2.10
2017-07-02T20:56:42.995Z,1.80
2017-07-02T20:59:10.395Z,2.33
2017-07-02T21:01:37.784Z,2.03
2017-07-02T21:04:05.455Z,2.30
2017-07-02T21:06:32.875Z,2.10
2017-07-02T21:09:00.258Z,2.23
2017-07-02T21:11:27.659Z,2.20
2017-07-02T21:13:55.065Z,2.23
2017-07-02T21:16:22.454Z,2.03
2017-07-02T21:18:49.862Z,2.40
2017-07-02T21:21:17.251Z,1.70
2017-07-02T21:23:44.658Z,2.47
2017-07-02T21:26:12.043Z,2.50
2017-07-02T21:28:39.451Z,3.03
2017-07-02T21:31:06.841Z,2.03
2017-07-02T21:33:34.243Z,1.97
2017-07-02T21:36:01.636Z,2.40
2017-07-02T21:38:29.032Z,2.30
2017-07-02T21:40:56.437Z,2.40
2017-07-02T21:43:23.827Z,1.90
2017-07-02T21:45:51.235Z,2.30
2017-07-02T21:48:18.691Z,2.23
2017-07-02T21:50:46.087Z,1.60
2017-07-02T21:53:13.773Z,2.30
2017-07-02T21:55:41.178Z,2.00
2017-07-02T21:58:08.571Z,2.60
2017-07-02T22:00:35.975Z,2.40
2017-07-02T22:03:03.423Z,2.10
2017-07-02T22:05:30.827Z,3.33
2017-07-02T22:07:58.223Z,1.93
2017-07-02T22:10:25.625Z,1.87
2017-07-02T22:12:53.007Z,2.00
2017-07-02T22:15:20.415Z,2.07
2017-07-02T22:17:47.799Z,2.03
2017-07-02T22:20:15.198Z,1.80
2017-07-02T22:22:42.591Z,2.13
2017-07-02T22:25:09.987Z,2.40
2017-07-02T22:27:37.387Z,2.37
2017-07-02T22:30:04.780Z,1.83
2017-07-02T22:32:32.180Z,2.43
2017-07-02T22:34:59.575Z,1.97
2017-07-02T22:37:26.966Z,2.37
2017-07-02T22:39:54.363Z,1.73
2017-07-02T22:42:21.755Z,1.77
2017-07-02T22:44:49.155Z,2.10
2017-07-02T22:47:16.540Z,1.80
2017-07-02T22:49:43.980Z,2.30
2017-07-02T22:52:11.371Z,2.70
2017-07-02T22:54:38.764Z,1.90
2017-07-02T22:57:06.168Z,2.40
2017-07-02T22:59:33.555Z,2.00
2017-07-02T23:02:00.954Z,1.80
2017-07-02T23:04:28.338Z,1.60
2017-07-02T23:06:55.747Z,1.87
2017-07-02T23:09:23.141Z,2.03
2017-07-02T23:11:50.543Z,2.00
2017-07-02T23:14:17.974Z,2.57
2017-07-02T23:16:45.362Z,2.13
2017-07-02T23:19:12.761Z,1.90
2017-07-02T23:21:40.168Z,2.17
2017-07-02T23:24:07.561Z,1.80
2017-07-02T23:26:34.959Z,1.90
2017-07-02T23:29:02.361Z,1.93
2017-07-02T23:31:29.776Z,2.80
2017-07-02T23:33:57.169Z,1.90
2017-07-02T23:36:24.567Z,2.77
2017-07-02T23:38:51.958Z,2.03
2017-07-02T23:41:19.371Z,2.13
2017-07-02T23:43:46.776Z,2.30
2017-07-02T23:46:14.419Z,2.03
2017-07-02T23:48:42.083Z,2.30
2017-07-02T23:51:09.508Z,2.53
2017-07-02T23:53:36.900Z,1.90
2017-07-02T23:56:04.547Z,1.90
2017-07-02T23:58:31.951Z,2.03
